LSPG weather

Public forecast

Using degrees Celsius for public forecast. Weather courtesy of forecast.io.

Closest aviation weather report (METAR) to Kagiswil Airport

Closest report is Alpnach Air Base, 2.5 nm (4.6 km) NNE. Retrieved 2020/08/10 04:50 UTC (20 minutes ago):

LSMA 100450Z AUTO 18003KT 9999NDV NCD 18/16 Q1016 RMK

Closest aviation forecast (TAF) to Kagiswil Airport

Forecast is more than 12 hours old.

Closest forecast is Alpnach Air Base, 2.5 nm (4.6 km) NNE. Retrieved 2020/08/09 17:00 UTC (12 hours ago):

TAF LSMA 091625Z 0917/1023 06007KT CAVOK TEMPO 1006/1023 9999 BKN120 PROB30 TEMPO 1006/1012 9999 SHRA FEW080TCU PROB40 TEMPO 1018/1023 9999 SHRA SCT080TCU BKN120 PROB30 TEMPO 1018/1023 22012G25KT 4000 TSRA SCT060CB BKN120